Accueil
METAR-TAF:

METAR-TAF

Aéroports :

Mount Pleasant Regional Airport

Mount Pleasant, Texas, États-Unis

latitude: 33-05-43N, longitude: 094-57-41W, altitude: 111 m

Observation

Le bulletin a été fait il y a 15 minutes, à 17:15 UTC
Vent 8 kt de nord/nord-ouest
Température 7°C
Humidité 76%
Pression 1028 hPa
Visibilité: 16.1 km
Nuages épars à une hauteur de 1400 ft
Nuages épars à une hauteur de 3700 ft

METAR: KOSA 141715Z AUTO 33008KT 10SM SCT014 SCT037 07/03 A3035 RMK AO1 T00740034

Heure: 11:30 (17:30 UTC)


TAF: absent

Observations et prévisions météorologiques de plus de 4000 aéroports (messages METAR et TAF).

Les stations disponibles sont représentées par des disques jaunes et rouges sur la carte.

Passer la souris dessus pour voir le nom de la station.

Cliquer dessus pour voir les observations et prévisions météorologiques.

Pour changer de carte: cliquez sur les boutons verts avec une croix noire pour zoomer, sur le bouton vert avec un tiret pour effectuer un zoom arrière, ou sur les flèches vertes pour les cartes adjacentes.


METAR-TAF: